sensor_id;sensor_type;location;lat;lon;timestamp;pressure;altitude;pressure_sealevel;temperature;humidity
20368;BME280;10343;52.402;9.796;2023-03-21T00:00:48;101062.97;;;18.22;50.58
20368;BME280;10343;52.402;9.796;2023-03-21T00:03:20;101053.59;;;18.30;50.05
20368;BME280;10343;52.402;9.796;2023-03-21T00:05:48;101047.97;;;18.17;50.10
20368;BME280;10343;52.402;9.796;2023-03-21T00:08:21;101052.44;;;18.36;49.60
20368;BME280;10343;52.402;9.796;2023-03-21T00:10:54;101050.97;;;18.83;49.38
20368;BME280;10343;52.402;9.796;2023-03-21T00:13:25;101039.78;;;19.26;47.97
20368;BME280;10343;52.402;9.796;2023-03-21T00:16:04;101044.88;;;18.62;49.24
20368;BME280;10343;52.402;9.796;2023-03-21T00:18:52;101048.19;;;18.32;50.61
20368;BME280;10343;52.402;9.796;2023-03-21T00:21:23;101045.41;;;17.97;50.94
20368;BME280;10343;52.402;9.796;2023-03-21T00:24:14;101039.16;;;18.33;50.37
20368;BME280;10343;52.402;9.796;2023-03-21T00:26:42;101040.25;;;18.11;50.99
20368;BME280;10343;52.402;9.796;2023-03-21T00:29:11;101034.38;;;17.84;51.94
20368;BME280;10343;52.402;9.796;2023-03-21T00:31:39;101031.50;;;18.43;51.25
20368;BME280;10343;52.402;9.796;2023-03-21T00:34:07;101036.91;;;18.06;51.35
20368;BME280;10343;52.402;9.796;2023-03-21T00:36:36;101031.81;;;17.81;51.75
20368;BME280;10343;52.402;9.796;2023-03-21T00:39:05;101030.16;;;17.97;51.04
20368;BME280;10343;52.402;9.796;2023-03-21T00:41:33;101034.88;;;18.11;51.38
20368;BME280;10343;52.402;9.796;2023-03-21T00:44:09;101026.06;;;18.79;49.52
20368;BME280;10343;52.402;9.796;2023-03-21T00:46:40;101020.38;;;19.37;48.05
20368;BME280;10343;52.402;9.796;2023-03-21T00:49:22;101018.78;;;18.81;49.77
20368;BME280;10343;52.402;9.796;2023-03-21T00:51:50;101023.19;;;18.12;50.99
20368;BME280;10343;52.402;9.796;2023-03-21T00:54:20;101015.47;;;19.11;49.00
20368;BME280;10343;52.402;9.796;2023-03-21T00:56:48;101018.78;;;19.16;48.37
20368;BME280;10343;52.402;9.796;2023-03-21T00:59:16;101010.31;;;19.40;47.60
20368;BME280;10343;52.402;9.796;2023-03-21T01:01:47;101012.63;;;19.96;46.90
20368;BME280;10343;52.402;9.796;2023-03-21T01:04:15;101004.78;;;19.43;47.31
20368;BME280;10343;52.402;9.796;2023-03-21T01:06:43;101001.81;;;18.81;48.88
20368;BME280;10343;52.402;9.796;2023-03-21T01:09:14;100993.13;;;18.76;49.30
20368;BME280;10343;52.402;9.796;2023-03-21T01:11:43;101008.69;;;18.69;49.84
20368;BME280;10343;52.402;9.796;2023-03-21T01:14:12;101003.16;;;18.90;49.32
20368;BME280;10343;52.402;9.796;2023-03-21T01:16:50;100996.84;;;18.91;48.98
20368;BME280;10343;52.402;9.796;2023-03-21T01:19:20;101004.13;;;18.54;49.93
20368;BME280;10343;52.402;9.796;2023-03-21T01:21:58;101007.41;;;18.06;51.38
20368;BME280;10343;52.402;9.796;2023-03-21T01:24:26;101004.56;;;18.09;52.09
20368;BME280;10343;52.402;9.796;2023-03-21T01:26:55;100993.84;;;18.79;50.43
20368;BME280;10343;52.402;9.796;2023-03-21T01:29:23;100999.13;;;18.11;52.39
20368;BME280;10343;52.402;9.796;2023-03-21T01:31:52;100992.41;;;19.07;49.98
20368;BME280;10343;52.402;9.796;2023-03-21T01:34:21;100997.66;;;18.75;50.22
20368;BME280;10343;52.402;9.796;2023-03-21T01:36:49;100994.16;;;18.73;50.31
20368;BME280;10343;52.402;9.796;2023-03-21T01:39:19;100993.13;;;19.11;49.47
20368;BME280;10343;52.402;9.796;2023-03-21T01:41:48;100987.06;;;18.72;50.07
20368;BME280;10343;52.402;9.796;2023-03-21T01:44:27;100994.63;;;18.81;49.91
20368;BME280;10343;52.402;9.796;2023-03-21T01:46:57;100988.09;;;18.87;49.58
20368;BME280;10343;52.402;9.796;2023-03-21T01:49:45;100992.28;;;18.58;50.16
20368;BME280;10343;52.402;9.796;2023-03-21T01:52:26;100987.22;;;18.69;50.46
20368;BME280;10343;52.402;9.796;2023-03-21T01:55:09;100982.94;;;18.82;50.42
20368;BME280;10343;52.402;9.796;2023-03-21T01:57:52;100985.28;;;19.06;49.20
20368;BME280;10343;52.402;9.796;2023-03-21T02:00:44;100981.47;;;18.94;49.99
20368;BME280;10343;52.402;9.796;2023-03-21T02:03:28;100977.41;;;19.84;47.52
20368;BME280;10343;52.402;9.796;2023-03-21T02:06:23;100975.63;;;19.51;48.14
20368;BME280;10343;52.402;9.796;2023-03-21T02:09:04;100975.13;;;19.77;48.00
20368;BME280;10343;52.402;9.796;2023-03-21T02:11:36;100976.91;;;19.28;48.66
20368;BME280;10343;52.402;9.796;2023-03-21T02:14:05;100972.81;;;19.05;49.78
20368;BME280;10343;52.402;9.796;2023-03-21T02:16:56;100966.66;;;18.85;49.25
20368;BME280;10343;52.402;9.796;2023-03-21T02:20:03;100965.69;;;19.04;49.46
20368;BME280;10343;52.402;9.796;2023-03-21T02:23:07;100963.50;;;18.95;49.86
20368;BME280;10343;52.402;9.796;2023-03-21T02:26:10;100961.28;;;19.03;49.46
20368;BME280;10343;52.402;9.796;2023-03-21T02:28:52;100954.22;;;19.34;48.89
20368;BME280;10343;52.402;9.796;2023-03-21T02:31:27;100959.88;;;18.78;49.54
20368;BME280;10343;52.402;9.796;2023-03-21T02:34:28;100951.00;;;19.27;48.80
20368;BME280;10343;52.402;9.796;2023-03-21T02:37:10;100950.59;;;18.68;50.61
20368;BME280;10343;52.402;9.796;2023-03-21T02:39:51;100954.81;;;19.23;49.03
20368;BME280;10343;52.402;9.796;2023-03-21T02:42:25;100943.94;;;18.58;50.48
20368;BME280;10343;52.402;9.796;2023-03-21T02:45:00;100946.28;;;18.81;49.99
20368;BME280;10343;52.402;9.796;2023-03-21T02:47:34;100945.94;;;19.05;49.06
20368;BME280;10343;52.402;9.796;2023-03-21T02:50:10;100943.38;;;19.51;48.19
20368;BME280;10343;52.402;9.796;2023-03-21T02:52:41;100945.22;;;19.67;47.50
20368;BME280;10343;52.402;9.796;2023-03-21T02:55:15;100942.28;;;19.06;49.32
20368;BME280;10343;52.402;9.796;2023-03-21T02:57:55;100945.63;;;19.43;47.76
20368;BME280;10343;52.402;9.796;2023-03-21T03:00:39;100943.03;;;19.26;48.43
20368;BME280;10343;52.402;9.796;2023-03-21T03:03:10;100939.03;;;19.33;48.26
20368;BME280;10343;52.402;9.796;2023-03-21T03:05:58;100929.75;;;19.87;47.08
20368;BME280;10343;52.402;9.796;2023-03-21T03:08:34;100937.97;;;19.20;49.24
20368;BME280;10343;52.402;9.796;2023-03-21T03:11:27;100936.56;;;20.08;46.66
20368;BME280;10343;52.402;9.796;2023-03-21T03:14:16;100933.13;;;19.74;47.24
20368;BME280;10343;52.402;9.796;2023-03-21T03:17:26;100933.66;;;19.33;48.72
20368;BME280;10343;52.402;9.796;2023-03-21T03:20:09;100930.72;;;19.54;47.88
20368;BME280;10343;52.402;9.796;2023-03-21T03:22:52;100934.00;;;19.75;47.73
20368;BME280;10343;52.402;9.796;2023-03-21T03:25:27;100924.47;;;19.37;48.54
20368;BME280;10343;52.402;9.796;2023-03-21T03:28:13;100920.03;;;18.87;49.25
20368;BME280;10343;52.402;9.796;2023-03-21T03:30:44;100921.28;;;19.46;48.49
20368;BME280;10343;52.402;9.796;2023-03-21T03:33:39;100918.72;;;18.95;49.38
20368;BME280;10343;52.402;9.796;2023-03-21T03:36:12;100922.91;;;19.33;48.44
20368;BME280;10343;52.402;9.796;2023-03-21T03:39:07;100913.94;;;19.00;48.66
20368;BME280;10343;52.402;9.796;2023-03-21T03:41:44;100921.69;;;18.56;49.97
20368;BME280;10343;52.402;9.796;2023-03-21T03:44:36;100923.13;;;18.45;50.30
20368;BME280;10343;52.402;9.796;2023-03-21T03:47:08;100918.41;;;19.17;49.05
20368;BME280;10343;52.402;9.796;2023-03-21T03:49:56;100921.50;;;19.10;48.96
20368;BME280;10343;52.402;9.796;2023-03-21T03:52:33;100918.91;;;19.40;48.04
20368;BME280;10343;52.402;9.796;2023-03-21T03:55:15;100918.97;;;18.91;49.05
20368;BME280;10343;52.402;9.796;2023-03-21T03:57:48;100915.88;;;18.30;50.88
20368;BME280;10343;52.402;9.796;2023-03-21T04:00:17;100920.53;;;18.77;50.25
20368;BME280;10343;52.402;9.796;2023-03-21T04:02:48;100920.06;;;18.69;50.30
20368;BME280;10343;52.402;9.796;2023-03-21T04:05:20;100912.81;;;18.89;49.50
20368;BME280;10343;52.402;9.796;2023-03-21T04:07:50;100918.00;;;18.92;49.76
20368;BME280;10343;52.402;9.796;2023-03-21T04:10:26;100921.31;;;18.97;49.57
20368;BME280;10343;52.402;9.796;2023-03-21T04:12:55;100914.41;;;18.58;50.87
20368;BME280;10343;52.402;9.796;2023-03-21T04:15:35;100910.13;;;18.71;50.60
20368;BME280;10343;52.402;9.796;2023-03-21T04:18:10;100918.81;;;18.76;50.41
20368;BME280;10343;52.402;9.796;2023-03-21T04:20:38;100910.44;;;19.48;48.83
20368;BME280;10343;52.402;9.796;2023-03-21T04:23:07;100918.88;;;18.92;49.87
20368;BME280;10343;52.402;9.796;2023-03-21T04:25:35;100913.88;;;19.18;49.07
20368;BME280;10343;52.402;9.796;2023-03-21T04:28:15;100914.03;;;18.99;49.81
20368;BME280;10343;52.402;9.796;2023-03-21T04:30:49;100910.63;;;18.62;50.74
20368;BME280;10343;52.402;9.796;2023-03-21T04:33:39;100906.88;;;18.31;51.60
20368;BME280;10343;52.402;9.796;2023-03-21T04:36:08;100909.03;;;18.58;51.16
20368;BME280;10343;52.402;9.796;2023-03-21T04:38:55;100907.66;;;19.17;49.45
20368;BME280;10343;52.402;9.796;2023-03-21T04:41:28;100909.72;;;18.28;52.04
20368;BME280;10343;52.402;9.796;2023-03-21T04:43:57;100904.81;;;18.01;53.14
20368;BME280;10343;52.402;9.796;2023-03-21T04:46:25;100901.66;;;17.93;53.41
20368;BME280;10343;52.402;9.796;2023-03-21T04:48:53;100900.53;;;18.49;52.36
20368;BME280;10343;52.402;9.796;2023-03-21T04:51:21;100899.97;;;18.60;51.72
20368;BME280;10343;52.402;9.796;2023-03-21T04:53:49;100903.38;;;18.64;51.40
20368;BME280;10343;52.402;9.796;2023-03-21T04:56:18;100900.31;;;18.02;53.53
20368;BME280;10343;52.402;9.796;2023-03-21T04:58:46;100901.31;;;18.52;52.31
20368;BME280;10343;52.402;9.796;2023-03-21T05:01:15;100904.53;;;19.09;50.92
20368;BME280;10343;52.402;9.796;2023-03-21T05:03:46;100904.41;;;18.77;51.38
20368;BME280;10343;52.402;9.796;2023-03-21T05:06:15;100900.16;;;18.91;50.78
20368;BME280;10343;52.402;9.796;2023-03-21T05:08:43;100895.25;;;19.31;50.01
20368;BME280;10343;52.402;9.796;2023-03-21T05:11:11;100907.91;;;19.29;50.03
20368;BME280;10343;52.402;9.796;2023-03-21T05:13:39;100896.81;;;18.85;50.62
20368;BME280;10343;52.402;9.796;2023-03-21T05:16:08;100899.47;;;19.03;50.13
20368;BME280;10343;52.402;9.796;2023-03-21T05:18:37;100902.19;;;19.35;49.21
20368;BME280;10343;52.402;9.796;2023-03-21T05:21:11;100898.41;;;18.90;50.20
20368;BME280;10343;52.402;9.796;2023-03-21T05:23:46;100898.53;;;18.87;50.96
20368;BME280;10343;52.402;9.796;2023-03-21T05:26:21;100895.59;;;18.75;50.93
20368;BME280;10343;52.402;9.796;2023-03-21T05:28:59;100898.63;;;19.50;49.14
20368;BME280;10343;52.402;9.796;2023-03-21T05:31:27;100899.75;;;19.14;49.96
20368;BME280;10343;52.402;9.796;2023-03-21T05:34:05;100897.41;;;19.40;49.38
20368;BME280;10343;52.402;9.796;2023-03-21T05:36:34;100894.56;;;18.78;50.92
20368;BME280;10343;52.402;9.796;2023-03-21T05:39:05;100890.56;;;19.03;50.21
20368;BME280;10343;52.402;9.796;2023-03-21T05:41:38;100898.88;;;17.94;53.41
20368;BME280;10343;52.402;9.796;2023-03-21T05:44:07;100884.50;;;18.81;51.12
20368;BME280;10343;52.402;9.796;2023-03-21T05:46:36;100890.31;;;18.40;51.65
20368;BME280;10343;52.402;9.796;2023-03-21T05:49:06;100889.13;;;18.62;51.56
20368;BME280;10343;52.402;9.796;2023-03-21T05:51:34;100888.09;;;18.13;52.82
20368;BME280;10343;52.402;9.796;2023-03-21T05:54:02;100895.03;;;18.68;51.14
20368;BME280;10343;52.402;9.796;2023-03-21T05:56:30;100882.16;;;18.07;52.96
20368;BME280;10343;52.402;9.796;2023-03-21T05:59:03;100898.09;;;18.10;53.27
20368;BME280;10343;52.402;9.796;2023-03-21T06:01:37;100896.59;;;18.04;53.21
20368;BME280;10343;52.402;9.796;2023-03-21T06:04:12;100891.31;;;18.89;50.85
20368;BME280;10343;52.402;9.796;2023-03-21T06:06:40;100889.44;;;19.23;49.63
20368;BME280;10343;52.402;9.796;2023-03-21T06:09:08;100892.09;;;18.73;50.42
20368;BME280;10343;52.402;9.796;2023-03-21T06:11:40;100895.69;;;17.86;53.70
20368;BME280;10343;52.402;9.796;2023-03-21T06:14:25;100884.78;;;18.59;51.06
20368;BME280;10343;52.402;9.796;2023-03-21T06:17:13;100893.94;;;18.39;51.22
20368;BME280;10343;52.402;9.796;2023-03-21T06:19:48;100895.41;;;19.28;49.59
20368;BME280;10343;52.402;9.796;2023-03-21T06:22:29;100897.81;;;18.67;49.95
20368;BME280;10343;52.402;9.796;2023-03-21T06:24:59;100905.91;;;19.16;49.30
20368;BME280;10343;52.402;9.796;2023-03-21T06:27:32;100894.19;;;18.68;50.17
20368;BME280;10343;52.402;9.796;2023-03-21T06:30:00;100897.22;;;19.11;49.80
20368;BME280;10343;52.402;9.796;2023-03-21T06:32:34;100898.41;;;18.90;50.09
20368;BME280;10343;52.402;9.796;2023-03-21T06:35:10;100896.38;;;18.26;51.49
20368;BME280;10343;52.402;9.796;2023-03-21T06:37:38;100893.38;;;19.79;48.61
20368;BME280;10343;52.402;9.796;2023-03-21T06:40:06;100897.47;;;18.91;49.45
20368;BME280;10343;52.402;9.796;2023-03-21T06:42:35;100904.06;;;19.17;49.61
20368;BME280;10343;52.402;9.796;2023-03-21T06:45:09;100900.28;;;19.05;49.40
20368;BME280;10343;52.402;9.796;2023-03-21T06:47:37;100905.38;;;19.58;48.48
20368;BME280;10343;52.402;9.796;2023-03-21T06:50:13;100898.88;;;20.08;47.01
20368;BME280;10343;52.402;9.796;2023-03-21T06:52:43;100902.41;;;19.78;47.29
20368;BME280;10343;52.402;9.796;2023-03-21T06:55:12;100896.09;;;19.63;47.63
20368;BME280;10343;52.402;9.796;2023-03-21T06:57:40;100893.97;;;19.38;47.81
20368;BME280;10343;52.402;9.796;2023-03-21T07:00:10;100894.88;;;20.15;46.84
20368;BME280;10343;52.402;9.796;2023-03-21T07:02:44;100895.28;;;20.83;45.24
20368;BME280;10343;52.402;9.796;2023-03-21T07:05:19;100902.09;;;20.89;44.99
20368;BME280;10343;52.402;9.796;2023-03-21T07:07:47;100904.94;;;21.14;44.14
20368;BME280;10343;52.402;9.796;2023-03-21T07:10:15;100905.53;;;21.19;43.70
20368;BME280;10343;52.402;9.796;2023-03-21T07:12:48;100907.72;;;20.41;45.30
20368;BME280;10343;52.402;9.796;2023-03-21T07:15:22;100912.72;;;20.02;46.07
20368;BME280;10343;52.402;9.796;2023-03-21T07:17:50;100907.75;;;20.10;46.09
20368;BME280;10343;52.402;9.796;2023-03-21T07:20:20;100903.47;;;20.81;44.96
20368;BME280;10343;52.402;9.796;2023-03-21T07:22:47;100901.16;;;20.90;44.52
20368;BME280;10343;52.402;9.796;2023-03-21T07:25:16;100895.84;;;21.02;44.48
20368;BME280;10343;52.402;9.796;2023-03-21T07:27:47;100900.75;;;20.96;44.35
20368;BME280;10343;52.402;9.796;2023-03-21T07:30:16;100899.56;;;20.57;45.07
20368;BME280;10343;52.402;9.796;2023-03-21T07:32:45;100903.31;;;20.09;45.99
20368;BME280;10343;52.402;9.796;2023-03-21T07:35:16;100896.91;;;20.85;44.91
20368;BME280;10343;52.402;9.796;2023-03-21T07:37:46;100887.22;;;21.25;44.05
20368;BME280;10343;52.402;9.796;2023-03-21T07:40:16;100889.06;;;21.66;43.00
20368;BME280;10343;52.402;9.796;2023-03-21T07:42:44;100894.56;;;21.64;42.84
20368;BME280;10343;52.402;9.796;2023-03-21T07:45:12;100887.28;;;21.79;42.50
20368;BME280;10343;52.402;9.796;2023-03-21T07:47:47;100891.28;;;21.17;42.84
20368;BME280;10343;52.402;9.796;2023-03-21T07:50:15;100883.53;;;21.40;42.46
20368;BME280;10343;52.402;9.796;2023-03-21T07:52:46;100885.97;;;21.30;43.08
20368;BME280;10343;52.402;9.796;2023-03-21T07:55:14;100884.78;;;21.76;42.63
20368;BME280;10343;52.402;9.796;2023-03-21T07:57:44;100884.19;;;22.77;40.67
20368;BME280;10343;52.402;9.796;2023-03-21T08:00:13;100884.31;;;23.26;39.73
20368;BME280;10343;52.402;9.796;2023-03-21T08:02:49;100875.75;;;22.43;40.91
20368;BME280;10343;52.402;9.796;2023-03-21T08:05:26;100883.34;;;23.27;39.92
20368;BME280;10343;52.402;9.796;2023-03-21T08:07:55;100883.78;;;23.20;39.14
20368;BME280;10343;52.402;9.796;2023-03-21T08:10:24;100879.38;;;22.16;41.18
20368;BME280;10343;52.402;9.796;2023-03-21T08:12:52;100877.78;;;22.78;40.05
20368;BME280;10343;52.402;9.796;2023-03-21T08:15:20;100874.28;;;22.12;40.99
20368;BME280;10343;52.402;9.796;2023-03-21T08:17:48;100890.06;;;22.31;41.12
20368;BME280;10343;52.402;9.796;2023-03-21T08:20:18;100887.19;;;21.94;41.02
20368;BME280;10343;52.402;9.796;2023-03-21T08:22:47;100899.28;;;21.04;42.48
20368;BME280;10343;52.402;9.796;2023-03-21T08:25:18;100892.81;;;20.49;44.08
20368;BME280;10343;52.402;9.796;2023-03-21T08:27:47;100892.25;;;20.44;44.41
20368;BME280;10343;52.402;9.796;2023-03-21T08:30:17;100896.19;;;20.67;44.44
20368;BME280;10343;52.402;9.796;2023-03-21T08:32:45;100886.31;;;20.68;43.84
20368;BME280;10343;52.402;9.796;2023-03-21T08:35:16;100897.72;;;20.12;45.36
20368;BME280;10343;52.402;9.796;2023-03-21T08:37:44;100887.91;;;20.56;44.33
20368;BME280;10343;52.402;9.796;2023-03-21T08:40:15;100899.06;;;20.05;45.27
20368;BME280;10343;52.402;9.796;2023-03-21T08:42:44;100905.47;;;19.56;47.07
20368;BME280;10343;52.402;9.796;2023-03-21T08:45:15;100895.16;;;20.70;45.02
20368;BME280;10343;52.402;9.796;2023-03-21T08:47:43;100893.25;;;20.72;45.22
20368;BME280;10343;52.402;9.796;2023-03-21T08:50:13;100891.50;;;20.71;44.38
20368;BME280;10343;52.402;9.796;2023-03-21T08:52:41;100891.06;;;20.34;45.46
20368;BME280;10343;52.402;9.796;2023-03-21T08:55:10;100890.50;;;19.98;45.75
20368;BME280;10343;52.402;9.796;2023-03-21T08:57:38;100892.28;;;20.87;44.35
20368;BME280;10343;52.402;9.796;2023-03-21T09:00:10;100901.31;;;20.13;45.36
20368;BME280;10343;52.402;9.796;2023-03-21T09:02:40;100896.00;;;19.65;46.10
20368;BME280;10343;52.402;9.796;2023-03-21T09:05:09;100894.97;;;19.51;46.92
20368;BME280;10343;52.402;9.796;2023-03-21T09:07:38;100883.81;;;20.94;44.17
20368;BME280;10343;52.402;9.796;2023-03-21T09:10:10;100887.44;;;21.07;43.29
20368;BME280;10343;52.402;9.796;2023-03-21T09:12:47;100894.19;;;20.57;43.56
20368;BME280;10343;52.402;9.796;2023-03-21T09:15:20;100890.34;;;19.85;45.63
20368;BME280;10343;52.402;9.796;2023-03-21T09:17:51;100879.50;;;20.17;44.64
20368;BME280;10343;52.402;9.796;2023-03-21T09:20:21;100876.81;;;20.17;45.26
20368;BME280;10343;52.402;9.796;2023-03-21T09:22:57;100881.38;;;19.55;46.91
20368;BME280;10343;52.402;9.796;2023-03-21T09:25:31;100877.84;;;20.89;43.56
20368;BME280;10343;52.402;9.796;2023-03-21T09:28:01;100881.88;;;21.10;42.61
20368;BME280;10343;52.402;9.796;2023-03-21T09:30:34;100883.50;;;21.13;42.67
20368;BME280;10343;52.402;9.796;2023-03-21T09:33:04;100875.66;;;21.23;42.75
20368;BME280;10343;52.402;9.796;2023-03-21T09:35:38;100876.50;;;21.79;41.45
20368;BME280;10343;52.402;9.796;2023-03-21T09:38:08;100884.44;;;21.26;42.25
20368;BME280;10343;52.402;9.796;2023-03-21T09:40:54;100873.56;;;20.27;44.02
20368;BME280;10343;52.402;9.796;2023-03-21T09:43:35;100884.84;;;20.03;44.95
20368;BME280;10343;52.402;9.796;2023-03-21T09:46:11;100885.59;;;19.91;44.75
20368;BME280;10343;52.402;9.796;2023-03-21T09:48:45;100878.34;;;20.81;43.54
20368;BME280;10343;52.402;9.796;2023-03-21T09:51:25;100879.56;;;21.46;42.06
20368;BME280;10343;52.402;9.796;2023-03-21T09:53:59;100879.94;;;21.12;42.40
20368;BME280;10343;52.402;9.796;2023-03-21T09:56:28;100883.25;;;20.89;43.37
20368;BME280;10343;52.402;9.796;2023-03-21T09:58:58;100874.66;;;21.52;42.12
20368;BME280;10343;52.402;9.796;2023-03-21T10:01:30;100873.88;;;21.78;41.27
20368;BME280;10343;52.402;9.796;2023-03-21T10:04:02;100862.84;;;22.08;41.52
20368;BME280;10343;52.402;9.796;2023-03-21T10:06:33;100865.81;;;21.91;41.54
20368;BME280;10343;52.402;9.796;2023-03-21T10:09:12;100877.72;;;21.04;42.66
20368;BME280;10343;52.402;9.796;2023-03-21T10:11:43;100878.56;;;21.34;42.62
20368;BME280;10343;52.402;9.796;2023-03-21T10:14:18;100875.59;;;21.51;42.25
20368;BME280;10343;52.402;9.796;2023-03-21T10:16:51;100883.25;;;21.45;42.45
20368;BME280;10343;52.402;9.796;2023-03-21T10:19:23;100879.38;;;20.93;44.32
20368;BME280;10343;52.402;9.796;2023-03-21T10:21:52;100879.13;;;21.66;42.95
20368;BME280;10343;52.402;9.796;2023-03-21T10:24:32;100862.44;;;22.79;41.32
20368;BME280;10343;52.402;9.796;2023-03-21T10:27:01;100859.50;;;21.64;43.18
20368;BME280;10343;52.402;9.796;2023-03-21T10:29:33;100862.03;;;22.46;42.64
20368;BME280;10343;52.402;9.796;2023-03-21T10:32:08;100858.41;;;23.34;41.18
20368;BME280;10343;52.402;9.796;2023-03-21T10:34:40;100862.16;;;21.92;43.05
20368;BME280;10343;52.402;9.796;2023-03-21T10:37:10;100857.50;;;22.47;42.84
20368;BME280;10343;52.402;9.796;2023-03-21T10:39:40;100861.47;;;21.33;44.06
20368;BME280;10343;52.402;9.796;2023-03-21T10:42:17;100854.63;;;22.74;42.60
20368;BME280;10343;52.402;9.796;2023-03-21T10:44:46;100855.09;;;22.68;42.30
20368;BME280;10343;52.402;9.796;2023-03-21T10:47:20;100849.97;;;21.99;43.30
20368;BME280;10343;52.402;9.796;2023-03-21T10:49:49;100847.50;;;22.21;43.15
20368;BME280;10343;52.402;9.796;2023-03-21T10:52:36;100849.03;;;22.13;43.32
20368;BME280;10343;52.402;9.796;2023-03-21T10:55:07;100847.97;;;22.67;43.00
20368;BME280;10343;52.402;9.796;2023-03-21T10:57:44;100847.78;;;22.44;42.73
20368;BME280;10343;52.402;9.796;2023-03-21T11:00:17;100851.38;;;22.17;43.79
20368;BME280;10343;52.402;9.796;2023-03-21T11:02:49;100846.66;;;22.08;44.35
20368;BME280;10343;52.402;9.796;2023-03-21T11:05:21;100853.06;;;21.52;45.79
20368;BME280;10343;52.402;9.796;2023-03-21T11:07:57;100846.75;;;21.12;46.60
20368;BME280;10343;52.402;9.796;2023-03-21T11:10:29;100846.38;;;21.31;45.52
20368;BME280;10343;52.402;9.796;2023-03-21T11:13:02;100844.16;;;21.65;45.37
20368;BME280;10343;52.402;9.796;2023-03-21T11:15:39;100843.50;;;21.34;46.32
20368;BME280;10343;52.402;9.796;2023-03-21T11:18:18;100847.66;;;21.80;46.16
20368;BME280;10343;52.402;9.796;2023-03-21T11:20:52;100838.38;;;21.71;45.95
20368;BME280;10343;52.402;9.796;2023-03-21T11:23:22;100837.66;;;21.54;46.34
20368;BME280;10343;52.402;9.796;2023-03-21T11:25:53;100839.50;;;22.20;45.51
20368;BME280;10343;52.402;9.796;2023-03-21T11:28:24;100836.69;;;21.55;46.98
20368;BME280;10343;52.402;9.796;2023-03-21T11:31:01;100836.69;;;21.55;47.34
20368;BME280;10343;52.402;9.796;2023-03-21T11:33:36;100834.19;;;21.52;46.44
20368;BME280;10343;52.402;9.796;2023-03-21T11:36:23;100834.91;;;21.69;46.18
20368;BME280;10343;52.402;9.796;2023-03-21T11:38:56;100829.81;;;21.64;47.14
20368;BME280;10343;52.402;9.796;2023-03-21T11:41:27;100826.81;;;22.35;45.43
20368;BME280;10343;52.402;9.796;2023-03-21T11:43:58;100819.16;;;21.88;46.52
20368;BME280;10343;52.402;9.796;2023-03-21T11:46:28;100823.41;;;22.18;46.03
20368;BME280;10343;52.402;9.796;2023-03-21T11:48:59;100822.19;;;21.71;47.00
20368;BME280;10343;52.402;9.796;2023-03-21T11:51:32;100820.00;;;21.63;48.17
20368;BME280;10343;52.402;9.796;2023-03-21T11:54:09;100812.56;;;21.40;47.60
20368;BME280;10343;52.402;9.796;2023-03-21T11:56:43;100810.94;;;21.64;47.39
20368;BME280;10343;52.402;9.796;2023-03-21T11:59:31;100821.22;;;21.03;49.61
20368;BME280;10343;52.402;9.796;2023-03-21T12:02:14;100809.38;;;21.87;47.30
20368;BME280;10343;52.402;9.796;2023-03-21T12:04:53;100804.41;;;20.99;48.98
20368;BME280;10343;52.402;9.796;2023-03-21T12:07:29;100809.97;;;21.38;49.04
20368;BME280;10343;52.402;9.796;2023-03-21T12:10:10;100795.25;;;21.29;49.27
20368;BME280;10343;52.402;9.796;2023-03-21T12:12:49;100799.25;;;22.55;47.11
20368;BME280;10343;52.402;9.796;2023-03-21T12:15:25;100796.63;;;21.49;47.86
20368;BME280;10343;52.402;9.796;2023-03-21T12:18:00;100795.38;;;22.34;47.02
20368;BME280;10343;52.402;9.796;2023-03-21T12:20:40;100794.09;;;19.91;51.56
20368;BME280;10343;52.402;9.796;2023-03-21T12:23:30;100791.56;;;21.17;49.39
20368;BME280;10343;52.402;9.796;2023-03-21T12:26:11;100786.03;;;21.46;48.95
20368;BME280;10343;52.402;9.796;2023-03-21T12:28:54;100785.72;;;20.96;49.92
20368;BME280;10343;52.402;9.796;2023-03-21T12:31:33;100781.22;;;20.82;50.61
20368;BME280;10343;52.402;9.796;2023-03-21T12:34:12;100784.91;;;20.38;51.07
20368;BME280;10343;52.402;9.796;2023-03-21T12:36:58;100776.00;;;21.88;48.04
20368;BME280;10343;52.402;9.796;2023-03-21T12:39:31;100778.09;;;21.03;49.13
20368;BME280;10343;52.402;9.796;2023-03-21T12:42:10;100771.28;;;21.25;49.18
20368;BME280;10343;52.402;9.796;2023-03-21T12:44:48;100774.47;;;21.71;48.13
20368;BME280;10343;52.402;9.796;2023-03-21T12:47:22;100778.34;;;21.13;49.84
20368;BME280;10343;52.402;9.796;2023-03-21T12:49:54;100767.91;;;21.48;49.18
20368;BME280;10343;52.402;9.796;2023-03-21T12:52:28;100766.28;;;21.18;50.00
20368;BME280;10343;52.402;9.796;2023-03-21T12:55:01;100766.47;;;20.32;51.04
20368;BME280;10343;52.402;9.796;2023-03-21T12:57:36;100766.38;;;21.04;50.78
20368;BME280;10343;52.402;9.796;2023-03-21T13:00:22;100751.06;;;21.98;48.80
20368;BME280;10343;52.402;9.796;2023-03-21T13:02:56;100761.75;;;21.06;50.19
20368;BME280;10343;52.402;9.796;2023-03-21T13:05:28;100753.03;;;21.96;48.45
20368;BME280;10343;52.402;9.796;2023-03-21T13:08:03;100746.84;;;21.81;48.64
20368;BME280;10343;52.402;9.796;2023-03-21T13:10:34;100746.25;;;21.23;48.74
20368;BME280;10343;52.402;9.796;2023-03-21T13:13:10;100741.03;;;21.87;48.62
20368;BME280;10343;52.402;9.796;2023-03-21T13:15:52;100744.47;;;21.76;48.59
20368;BME280;10343;52.402;9.796;2023-03-21T13:18:32;100737.78;;;21.69;49.15
20368;BME280;10343;52.402;9.796;2023-03-21T13:21:09;100742.94;;;20.63;51.49
20368;BME280;10343;52.402;9.796;2023-03-21T13:23:55;100726.22;;;21.27;50.76
20368;BME280;10343;52.402;9.796;2023-03-21T13:26:32;100733.44;;;20.99;51.74